Time;durP1;ratioP1;P1;durP2;ratioP2;P2;SDS_P1;SDS_P2;PMS_P1;PMS_P2;Temp;Humidity;BMP_temperature;BMP_pressure;BME280_temperature;BME280_humidity;BME280_pressure;Samples;Min_cycle;Max_cycle;Signal;HPM_P1;HPM_P2
2023/08/21 00:01:39;;;;;;;0.80;0.80;;;;;;;25.84;64.96;99504.16;5051081;28;20201;-66
2023/08/21 00:04:06;;;;;;;1.23;0.90;;;;;;;25.78;65.31;99496.84;5050335;28;20251;-66
2023/08/21 00:06:33;;;;;;;1.03;1.03;;;;;;;25.80;65.84;99518.50;5050891;28;20242;-66
2023/08/21 00:09:01;;;;;;;1.67;0.93;;;;;;;25.63;66.09;99482.44;5050682;28;20216;-66
2023/08/21 00:11:28;;;;;;;1.17;1.00;;;;;;;25.69;66.64;99510.78;5050790;28;20188;-66
2023/08/21 00:13:55;;;;;;;0.93;0.90;;;;;;;25.63;66.90;99510.50;5050911;28;20639;-66
2023/08/21 00:16:22;;;;;;;0.80;0.80;;;;;;;25.51;67.95;99510.66;5050259;28;20205;-66
2023/08/21 00:18:50;;;;;;;1.23;1.13;;;;;;;25.49;67.75;99514.34;5046845;28;20193;-66
2023/08/21 00:21:16;;;;;;;0.90;0.90;;;;;;;25.48;67.45;99515.31;5050053;28;20204;-66
2023/08/21 00:23:43;;;;;;;1.07;0.83;;;;;;;25.35;67.61;99512.97;5050731;28;20659;-66
2023/08/21 00:26:10;;;;;;;1.43;1.33;;;;;;;25.29;67.76;99503.00;5050425;28;20258;-66
2023/08/21 00:28:36;;;;;;;1.10;1.10;;;;;;;25.25;68.13;99513.91;5050100;28;20219;-66
2023/08/21 00:31:04;;;;;;;0.90;0.90;;;;;;;25.14;67.65;99517.47;5050074;28;20196;-66
2023/08/21 00:33:32;;;;;;;1.50;1.23;;;;;;;25.03;68.33;99510.56;5047500;28;20196;-66
2023/08/21 00:36:00;;;;;;;1.07;1.07;;;;;;;25.03;68.47;99515.81;5050069;28;20259;-66
2023/08/21 00:38:27;;;;;;;0.70;0.70;;;;;;;24.98;68.65;99523.25;5050255;28;20555;-66
2023/08/21 00:40:54;;;;;;;0.97;0.97;;;;;;;24.93;68.56;99509.72;5048111;28;20235;-66
2023/08/21 00:43:21;;;;;;;1.10;1.10;;;;;;;24.98;68.42;99512.75;5050099;28;20266;-66
2023/08/21 00:45:48;;;;;;;1.43;1.37;;;;;;;25.00;69.29;99510.84;5050258;28;20254;-66
2023/08/21 00:48:15;;;;;;;1.23;1.10;;;;;;;24.98;68.65;99510.13;5049808;28;20258;-66
2023/08/21 00:50:44;;;;;;;0.77;0.77;;;;;;;24.98;68.47;99517.16;5050629;28;20291;-66
2023/08/21 00:53:12;;;;;;;0.77;0.77;;;;;;;24.99;69.49;99517.03;5049873;28;20200;-66
2023/08/21 00:55:39;;;;;;;1.03;1.03;;;;;;;24.99;68.81;99519.66;5050264;28;20197;-66
2023/08/21 00:58:06;;;;;;;1.60;1.50;;;;;;;24.94;68.97;99500.88;5049851;28;20193;-66
2023/08/21 01:00:36;;;;;;;1.23;1.20;;;;;;;24.87;69.16;99510.25;5049826;28;20207;-66
2023/08/21 01:03:02;;;;;;;0.90;0.90;;;;;;;24.77;69.92;99509.38;5049603;28;20239;-66
2023/08/21 01:05:29;;;;;;;1.07;1.07;;;;;;;24.42;70.97;99498.47;5050148;28;20200;-66
2023/08/21 01:08:01;;;;;;;1.60;1.50;;;;;;;24.31;72.13;99516.88;5049739;28;20259;-66
2023/08/21 01:10:43;;;;;;;1.40;1.30;;;;;;;24.20;72.45;99514.34;5049753;28;20307;-66
2023/08/21 01:13:21;;;;;;;1.00;0.90;;;;;;;24.10;73.38;99510.81;5049754;28;20200;-66
2023/08/21 01:15:51;;;;;;;1.07;1.07;;;;;;;24.05;73.55;99509.41;5050052;28;20287;-66
2023/08/21 01:18:19;;;;;;;1.27;1.27;;;;;;;23.98;73.54;99510.88;5049382;28;20197;-66
2023/08/21 01:20:47;;;;;;;3.23;1.30;;;;;;;23.95;73.72;99511.13;5050342;28;20206;-66
2023/08/21 01:23:31;;;;;;;1.43;1.23;;;;;;;23.76;73.82;99499.69;5049567;28;20224;-66
2023/08/21 01:25:57;;;;;;;0.70;0.70;;;;;;;23.84;74.17;99511.22;5047948;28;20262;-66
2023/08/21 01:28:24;;;;;;;1.23;1.13;;;;;;;23.84;74.00;99513.81;5049404;28;20250;-66
2023/08/21 01:30:55;;;;;;;1.40;1.30;;;;;;;23.79;73.40;99504.66;5049566;28;20208;-66
2023/08/21 01:33:25;;;;;;;1.03;1.00;;;;;;;23.73;73.90;99502.56;5049715;28;20650;-66
2023/08/21 01:35:52;;;;;;;1.67;1.57;;;;;;;23.72;72.90;99499.09;5046100;28;20209;-66
2023/08/21 01:38:21;;;;;;;1.57;1.10;;;;;;;23.70;73.44;99508.06;5049383;28;20204;-66
2023/08/21 01:40:48;;;;;;;1.73;1.33;;;;;;;23.67;73.36;99506.53;5053293;28;20611;-66
2023/08/21 01:43:15;;;;;;;2.17;1.13;;;;;;;23.64;72.93;99506.78;5053086;28;20266;-66
2023/08/21 01:45:41;;;;;;;1.13;1.13;;;;;;;23.67;73.60;99509.16;5053284;28;20750;-66
2023/08/21 01:48:08;;;;;;;0.93;0.93;;;;;;;23.71;72.56;99505.31;5053236;28;20197;-66
2023/08/21 01:50:35;;;;;;;1.30;1.20;;;;;;;23.69;72.48;99499.38;5053116;28;20266;-66
2023/08/21 01:53:02;;;;;;;1.17;1.13;;;;;;;23.69;72.24;99501.97;5053278;28;20196;-66
2023/08/21 01:55:30;;;;;;;0.70;0.70;;;;;;;23.70;72.17;99510.66;5053223;28;20223;-66
2023/08/21 01:57:56;;;;;;;0.93;0.93;;;;;;;23.64;72.16;99506.78;5053450;28;20251;-66
2023/08/21 02:00:23;;;;;;;1.17;1.07;;;;;;;23.56;72.46;99498.72;5053130;28;20197;-66
2023/08/21 02:02:50;;;;;;;1.10;0.80;;;;;;;23.60;72.43;99505.38;5051807;28;20200;-66
2023/08/21 02:05:16;;;;;;;2.00;0.90;;;;;;;23.63;72.31;99504.28;5052890;28;20192;-66
2023/08/21 02:07:43;;;;;;;1.27;1.27;;;;;;;23.66;71.77;99506.63;5053157;28;20278;-66
2023/08/21 02:10:11;;;;;;;1.23;1.23;;;;;;;23.66;71.50;99510.09;5052914;28;20282;-66
2023/08/21 02:12:39;;;;;;;1.47;1.37;;;;;;;23.67;71.80;99510.94;5052754;28;20258;-66
2023/08/21 02:15:07;;;;;;;1.20;1.20;;;;;;;23.63;71.65;99499.88;5052990;28;20631;-66
2023/08/21 02:17:34;;;;;;;1.40;1.00;;;;;;;23.62;72.17;99498.19;5052858;28;20262;-66
2023/08/21 02:20:00;;;;;;;1.00;1.00;;;;;;;23.62;72.42;99503.44;5053062;28;20201;-66
2023/08/21 02:22:27;;;;;;;0.80;0.80;;;;;;;23.61;72.12;99507.03;5052914;28;20274;-66
2023/08/21 02:24:54;;;;;;;1.33;1.23;;;;;;;23.59;71.66;99503.69;5052676;28;20588;-66
2023/08/21 02:27:21;;;;;;;0.90;0.90;;;;;;;23.57;72.06;99500.38;5052711;28;20746;-66
2023/08/21 02:29:49;;;;;;;1.13;1.13;;;;;;;23.60;72.52;99500.13;5052436;28;20212;-66
2023/08/21 02:32:16;;;;;;;0.97;0.97;;;;;;;23.57;72.01;99500.38;5052710;28;20258;-66
2023/08/21 02:34:42;;;;;;;1.00;0.97;;;;;;;23.48;72.58;99495.91;5052810;28;20197;-66
2023/08/21 02:37:09;;;;;;;0.87;0.87;;;;;;;23.45;72.92;99491.75;5052049;28;20252;-66
2023/08/21 02:39:36;;;;;;;1.53;1.53;;;;;;;23.44;72.96;99490.09;5052497;28;20255;-66
2023/08/21 02:42:02;;;;;;;0.80;0.80;;;;;;;23.47;72.57;99494.22;5052003;28;20330;-66
2023/08/21 02:44:29;;;;;;;1.00;1.00;;;;;;;23.48;72.62;99495.91;5052484;28;20638;-66
2023/08/21 02:46:57;;;;;;;3.30;1.00;;;;;;;23.56;72.54;99500.50;5052218;28;20201;-66
2023/08/21 02:49:24;;;;;;;6.27;1.10;;;;;;;23.62;72.22;99508.66;5052188;28;20274;-66
2023/08/21 02:51:50;;;;;;;1.30;1.30;;;;;;;23.68;72.64;99505.56;5048526;28;20196;-66
2023/08/21 02:54:17;;;;;;;0.97;0.97;;;;;;;23.75;71.85;99498.84;5052088;28;20616;-66
2023/08/21 02:56:44;;;;;;;1.03;1.03;;;;;;;23.80;71.23;99506.34;5052185;28;20201;-66
2023/08/21 02:59:10;;;;;;;1.00;0.83;;;;;;;23.81;71.48;99508.81;5051962;28;20266;-66
2023/08/21 03:01:37;;;;;;;1.03;1.03;;;;;;;23.82;71.43;99500.00;5052100;28;20266;-66
2023/08/21 03:04:05;;;;;;;1.00;1.00;;;;;;;23.83;70.89;99506.09;5051653;28;20196;-66
2023/08/21 03:06:32;;;;;;;1.20;1.20;;;;;;;23.82;70.85;99510.47;5049463;28;20666;-66
2023/08/21 03:08:59;;;;;;;1.63;1.53;;;;;;;23.85;71.00;99510.22;5052009;28;20192;-66
2023/08/21 03:11:25;;;;;;;0.93;0.93;;;;;;;23.87;71.04;99507.50;5051469;28;20700;-66
2023/08/21 03:13:52;;;;;;;1.77;1.17;;;;;;;23.92;71.15;99507.94;5051896;28;20197;-66
2023/08/21 03:16:19;;;;;;;0.90;0.90;;;;;;;23.92;70.04;99508.78;5051479;28;20201;-66
2023/08/21 03:18:56;;;;;;;0.90;0.90;;;;;;;23.88;70.67;99507.34;5051810;28;20223;-66
2023/08/21 03:21:25;;;;;;;1.03;1.03;;;;;;;23.96;70.82;99512.81;5051545;28;20631;-66
2023/08/21 03:23:53;;;;;;;1.13;1.13;;;;;;;23.96;70.52;99512.81;5051800;28;20700;-66
2023/08/21 03:26:19;;;;;;;1.20;1.10;;;;;;;23.99;70.92;99512.53;5051283;28;20193;-66
2023/08/21 03:28:46;;;;;;;1.10;1.10;;;;;;;24.00;70.72;99506.34;5051527;28;20254;-66
2023/08/21 03:31:13;;;;;;;0.90;0.90;;;;;;;24.04;71.01;99510.34;5051253;28;20212;-66
2023/08/21 03:33:39;;;;;;;1.27;1.17;;;;;;;24.07;70.36;99508.44;5051784;28;20228;-66
2023/08/21 03:36:07;;;;;;;0.83;0.83;;;;;;;23.99;70.10;99488.13;5051248;28;20193;-66
2023/08/21 03:38:35;;;;;;;1.20;1.20;;;;;;;24.09;69.77;99501.28;5051327;28;20233;-66
2023/08/21 03:41:04;;;;;;;3.50;1.17;;;;;;;24.04;69.93;99501.66;5050948;28;20243;-66
2023/08/21 03:43:31;;;;;;;4.07;1.00;;;;;;;23.96;69.74;99502.31;5049947;28;20201;-66
2023/08/21 03:45:58;;;;;;;1.63;0.80;;;;;;;23.84;70.60;99502.53;5050958;28;20200;-66
2023/08/21 03:48:25;;;;;;;0.90;0.90;;;;;;;23.71;71.01;99480.94;5050990;28;20222;-66
2023/08/21 03:50:51;;;;;;;0.90;0.90;;;;;;;23.73;71.40;99503.41;5051138;28;20307;-66
2023/08/21 03:53:19;;;;;;;1.80;1.10;;;;;;;23.63;71.67;99499.88;5050833;28;20250;-66
2023/08/21 03:55:47;;;;;;;3.13;1.23;;;;;;;23.58;71.76;99506.44;5051437;28;20204;-66
2023/08/21 03:58:15;;;;;;;1.37;1.33;;;;;;;23.53;72.63;99504.19;5049957;28;20242;-66
2023/08/21 04:00:41;;;;;;;2.73;1.03;;;;;;;23.55;72.50;99504.09;5050341;28;20621;-66
2023/08/21 04:03:08;;;;;;;1.47;1.37;;;;;;;23.55;72.52;99510.16;5050125;28;20200;-66
2023/08/21 04:05:35;;;;;;;0.77;0.70;;;;;;;23.56;71.92;99509.19;5050668;28;20850;-66
2023/08/21 04:08:01;;;;;;;1.47;0.83;;;;;;;23.54;72.87;99508.47;5051222;28;20254;-66
2023/08/21 04:10:28;;;;;;;0.90;0.90;;;;;;;23.55;72.02;99506.69;5050226;28;20217;-66
2023/08/21 04:12:56;;;;;;;0.90;0.90;;;;;;;23.53;72.82;99499.78;5050174;28;20200;-66
2023/08/21 04:15:23;;;;;;;1.30;1.00;;;;;;;23.54;72.67;99500.63;5050915;28;20258;-66
2023/08/21 04:17:49;;;;;;;0.97;0.97;;;;;;;23.54;73.09;99500.63;5050289;28;20829;-66
2023/08/21 04:20:16;;;;;;;1.03;1.03;;;;;;;23.58;73.55;99507.28;5051011;28;20197;-66
2023/08/21 04:22:43;;;;;;;0.80;0.80;;;;;;;23.62;72.40;99508.66;5050167;28;20655;-66
2023/08/21 04:25:11;;;;;;;1.23;1.03;;;;;;;23.68;73.02;99516.06;5050251;28;20258;-66
2023/08/21 04:27:37;;;;;;;1.23;1.13;;;;;;;23.74;73.27;99512.91;5050422;28;20209;-66
2023/08/21 04:30:07;;;;;;;1.13;1.07;;;;;;;23.78;73.01;99509.06;5049766;28;20220;-66
2023/08/21 04:32:34;;;;;;;1.00;1.00;;;;;;;23.86;71.95;99511.91;5049690;28;20247;-66
2023/08/21 04:35:01;;;;;;;1.10;1.10;;;;;;;23.90;72.46;99512.47;5050466;28;20585;-66
2023/08/21 04:37:28;;;;;;;1.63;1.20;;;;;;;23.83;72.28;99496.44;5050350;28;20673;-66
2023/08/21 04:39:55;;;;;;;0.80;0.80;;;;;;;23.99;72.42;99517.78;5046881;28;20735;-66
2023/08/21 04:42:22;;;;;;;0.70;0.70;;;;;;;24.14;71.07;99517.47;5049458;28;20200;-66
2023/08/21 04:44:49;;;;;;;1.60;1.43;;;;;;;24.29;70.83;99524.06;5048373;28;20204;-67
2023/08/21 04:47:26;;;;;;;0.97;0.97;;;;;;;24.41;69.85;99528.25;5048723;28;20562;-67
2023/08/21 04:49:53;;;;;;;0.90;0.90;;;;;;;24.57;70.08;99528.59;5048238;28;20231;-67
2023/08/21 04:52:20;;;;;;;0.87;0.83;;;;;;;24.70;70.42;99528.38;5046466;28;20266;-67
2023/08/21 04:54:48;;;;;;;0.97;0.97;;;;;;;24.86;71.30;99526.94;5048652;28;20258;-67
2023/08/21 04:57:16;;;;;;;0.87;0.87;;;;;;;25.07;70.93;99522.44;5049172;28;20204;-67
2023/08/21 04:59:42;;;;;;;1.23;0.97;;;;;;;25.31;68.49;99534.34;5047263;28;20204;-67
2023/08/21 05:02:09;;;;;;;1.17;1.17;;;;;;;25.55;69.16;99534.84;5046083;28;20216;-67
2023/08/21 05:04:38;;;;;;;0.90;0.90;;;;;;;25.78;66.95;99533.59;5047736;28;20262;-65
2023/08/21 05:07:05;;;;;;;1.20;1.10;;;;;;;25.91;65.30;99528.84;5047925;28;20209;-67
2023/08/21 05:09:32;;;;;;;0.70;0.70;;;;;;;26.23;62.89;99544.34;5047347;28;20201;-66
2023/08/21 05:11:59;;;;;;;3.60;0.87;;;;;;;26.40;64.91;99540.97;5048463;28;20266;-70
2023/08/21 05:14:26;;;;;;;1.30;1.30;;;;;;;26.55;63.92;99543.97;5048747;28;21156;-69
2023/08/21 05:16:53;;;;;;;1.27;1.17;;;;;;;26.77;60.87;99546.22;5051437;28;20209;-68
2023/08/21 05:19:19;;;;;;;0.73;0.73;;;;;;;26.94;64.77;99539.41;5052286;28;20207;-66
2023/08/21 05:21:47;;;;;;;0.90;0.90;;;;;;;27.11;61.41;99542.06;5051972;28;20196;-68
2023/08/21 05:24:14;;;;;;;0.70;0.70;;;;;;;27.33;60.93;99540.00;5052165;28;20204;-68
2023/08/21 05:26:41;;;;;;;0.90;0.90;;;;;;;27.49;58.02;99548.94;5051463;28;20208;-69
2023/08/21 05:29:07;;;;;;;1.00;1.00;;;;;;;27.59;56.96;99541.75;5051917;28;20212;-67
2023/08/21 05:31:34;;;;;;;0.87;0.87;;;;;;;27.67;56.37;99543.63;5052795;28;20213;-67
2023/08/21 05:34:01;;;;;;;0.70;0.70;;;;;;;27.73;56.67;99543.03;5052110;28;20250;-67
2023/08/21 05:36:28;;;;;;;3.33;1.23;;;;;;;27.87;58.15;99547.78;5053030;28;20561;-67
2023/08/21 05:38:57;;;;;;;1.07;1.07;;;;;;;28.03;55.95;99555.81;5052316;28;20201;-67
2023/08/21 05:41:24;;;;;;;1.00;1.00;;;;;;;28.03;54.57;99550.53;5052107;28;20254;-67
2023/08/21 05:43:51;;;;;;;1.17;1.17;;;;;;;28.09;57.09;99551.75;5051822;28;20201;-67
2023/08/21 05:46:17;;;;;;;0.90;0.90;;;;;;;28.15;54.40;99549.31;5052882;28;20635;-67
2023/08/21 05:48:44;;;;;;;1.27;1.00;;;;;;;28.22;54.38;99548.69;5051596;28;20263;-67
2023/08/21 05:51:11;;;;;;;1.13;1.13;;;;;;;28.32;55.58;99549.44;5052672;28;20224;-67
2023/08/21 05:53:37;;;;;;;0.80;0.80;;;;;;;28.41;54.14;99556.41;5052621;28;20254;-66
2023/08/21 05:56:05;;;;;;;1.07;1.07;;;;;;;28.50;55.02;99547.56;5052221;28;20212;-67
2023/08/21 05:58:32;;;;;;;0.90;0.90;;;;;;;28.66;52.37;99553.78;5049612;28;20201;-67
2023/08/21 06:00:59;;;;;;;1.03;1.03;;;;;;;28.93;52.91;99549.28;5052185;28;20672;-67
2023/08/21 06:03:26;;;;;;;1.07;0.97;;;;;;;29.24;52.99;99554.84;5052104;28;20204;-67
2023/08/21 06:05:53;;;;;;;0.85;0.82;;;;;;;29.54;51.15;99554.25;5049788;28;20258;-67
2023/08/21 06:08:19;;;;;;;1.15;1.10;;;;;;;29.72;50.15;99556.75;5052057;28;20286;-67
2023/08/21 06:10:46;;;;;;;1.13;0.90;;;;;;;29.72;49.99;99557.59;5053225;28;20270;-67
2023/08/21 06:13:14;;;;;;;1.13;1.02;;;;;;;29.74;50.17;99563.53;5052095;28;20201;-67
2023/08/21 06:15:44;;;;;;;1.25;1.25;;;;;;;29.83;52.63;99565.19;5052228;28;20204;-67
2023/08/21 06:18:11;;;;;;;1.10;1.02;;;;;;;29.88;50.94;99573.47;5052150;28;20251;-67
2023/08/21 06:20:38;;;;;;;1.17;1.10;;;;;;;29.91;50.33;99567.88;5052818;28;20205;-67
2023/08/21 06:23:04;;;;;;;0.98;0.98;;;;;;;29.90;49.59;99570.66;5051949;28;20224;-67
2023/08/21 06:25:33;;;;;;;1.35;0.88;;;;;;;29.99;50.21;99581.06;5051191;28;20262;-67
2023/08/21 06:28:00;;;;;;;0.70;0.70;;;;;;;30.18;49.13;99575.44;5051606;28;20274;-67
2023/08/21 06:30:28;;;;;;;0.93;0.93;;;;;;;30.40;48.46;99575.78;5051425;28;20275;-67
2023/08/21 06:32:55;;;;;;;1.77;0.98;;;;;;;30.54;47.72;99580.38;5052122;28;20623;-68
2023/08/21 06:35:21;;;;;;;3.60;1.45;;;;;;;30.68;48.88;99582.31;5051341;28;20254;-65
2023/08/21 06:37:48;;;;;;;1.20;1.20;;;;;;;30.88;47.89;99577.47;5053002;28;20212;-65
2023/08/21 06:40:15;;;;;;;0.98;0.98;;;;;;;31.02;47.09;99569.63;5052681;28;20216;-64
2023/08/21 06:42:42;;;;;;;0.65;0.65;;;;;;;31.15;45.74;99569.91;5050220;28;20204;-65
2023/08/21 06:45:09;;;;;;;0.90;0.90;;;;;;;31.32;46.67;99580.41;5051272;28;20200;-65
2023/08/21 06:47:37;;;;;;;0.93;0.93;;;;;;;31.52;45.86;99579.00;5053016;28;20200;-65
2023/08/21 06:50:04;;;;;;;0.68;0.68;;;;;;;31.63;45.86;99578.63;5051568;28;20201;-65
2023/08/21 06:52:31;;;;;;;0.85;0.85;;;;;;;31.68;44.16;99570.94;5050896;28;20635;-65
2023/08/21 06:54:58;;;;;;;0.60;0.60;;;;;;;31.78;45.38;99570.69;5052058;28;20211;-65
2023/08/21 06:57:24;;;;;;;1.20;1.10;;;;;;;31.96;44.30;99569.38;5052194;28;20266;-65
2023/08/21 06:59:51;;;;;;;1.00;1.00;;;;;;;32.12;44.01;99574.56;5052430;28;20201;-65
2023/08/21 07:02:18;;;;;;;0.85;0.85;;;;;;;32.19;43.30;99569.38;5052462;28;20603;-65
2023/08/21 07:04:46;;;;;;;1.17;1.17;;;;;;;32.32;44.94;99558.13;5052597;28;20201;-65
2023/08/21 07:07:12;;;;;;;0.88;0.88;;;;;;;32.65;43.40;99575.41;5052752;28;20204;-65
2023/08/21 07:09:39;;;;;;;1.02;0.98;;;;;;;32.72;40.95;99568.34;5051054;28;20742;-65
2023/08/21 07:12:07;;;;;;;0.90;0.90;;;;;;;32.75;44.25;99573.31;5051852;28;20242;-65
2023/08/21 07:14:33;;;;;;;0.90;0.88;;;;;;;32.84;41.00;99569.53;5051883;28;20238;-64
2023/08/21 07:17:00;;;;;;;1.17;1.10;;;;;;;33.05;42.48;99566.97;5051812;28;20623;-66
2023/08/21 07:19:27;;;;;;;1.00;1.00;;;;;;;33.05;41.81;99566.13;5050337;28;20254;-66
2023/08/21 07:21:55;;;;;;;0.77;0.77;;;;;;;33.07;41.92;99564.94;5050946;28;20227;-66
2023/08/21 07:24:22;;;;;;;0.80;0.80;;;;;;;33.36;43.89;99568.53;5050688;28;20285;-67
2023/08/21 07:26:48;;;;;;;0.88;0.88;;;;;;;33.63;40.67;99567.84;5051160;28;20204;-67
2023/08/21 07:29:15;;;;;;;0.88;0.88;;;;;;;33.77;40.21;99561.63;5050798;28;20197;-68
2023/08/21 07:31:42;;;;;;;0.77;0.73;;;;;;;33.95;39.77;99564.66;5050874;28;20286;-67
2023/08/21 07:34:09;;;;;;;1.17;0.80;;;;;;;34.00;39.13;99548.09;5051179;28;20311;-67
2023/08/21 07:36:35;;;;;;;0.75;0.75;;;;;;;34.23;39.88;99568.19;5050949;28;20205;-67
2023/08/21 07:39:03;;;;;;;1.02;0.70;;;;;;;34.21;37.30;99564.06;5050712;28;20254;-68
2023/08/21 07:41:30;;;;;;;0.90;0.80;;;;;;;34.30;38.95;99562.91;5048445;28;20680;-67
2023/08/21 07:43:57;;;;;;;1.40;0.93;;;;;;;34.50;37.82;99563.88;5051140;28;20215;-67
2023/08/21 07:46:24;;;;;;;1.00;1.00;;;;;;;34.70;36.72;99569.34;5050537;28;20265;-67
2023/08/21 07:48:51;;;;;;;1.17;0.80;;;;;;;35.07;36.18;99576.88;5050157;28;20286;-67
2023/08/21 07:51:18;;;;;;;0.98;0.82;;;;;;;35.36;36.24;99561.59;5049358;28;20278;-67
2023/08/21 07:53:44;;;;;;;3.90;0.95;;;;;;;35.39;36.93;99555.88;5050946;28;20278;-67
2023/08/21 07:56:12;;;;;;;0.85;0.85;;;;;;;35.32;37.23;99553.19;5050131;28;20636;-67
2023/08/21 07:58:39;;;;;;;0.77;0.77;;;;;;;35.44;35.38;99556.09;5050192;28;20196;-67
2023/08/21 08:01:06;;;;;;;0.90;0.90;;;;;;;35.67;38.21;99548.56;5045716;28;20319;-66
2023/08/21 08:03:33;;;;;;;0.82;0.80;;;;;;;35.91;35.04;99553.28;5048191;28;20266;-69
2023/08/21 08:06:00;;;;;;;0.90;0.90;;;;;;;36.13;33.70;99557.41;5048522;28;20719;-67
2023/08/21 08:08:26;;;;;;;0.90;0.90;;;;;;;36.25;34.39;99553.09;5049377;28;20642;-68
2023/08/21 08:10:53;;;;;;;0.80;0.80;;;;;;;36.41;35.09;99549.19;5048631;28;20220;-67
2023/08/21 08:13:21;;;;;;;3.17;0.80;;;;;;;36.52;36.69;99550.34;5047999;28;20201;-67
2023/08/21 08:15:48;;;;;;;2.97;0.90;;;;;;;36.51;32.38;99544.22;5049378;28;20274;-68
2023/08/21 08:18:15;;;;;;;0.60;0.60;;;;;;;36.69;33.53;99546.25;5048765;28;20197;-69
2023/08/21 08:20:42;;;;;;;0.80;0.80;;;;;;;36.86;34.06;99546.59;5048236;28;20208;-69
2023/08/21 08:23:09;;;;;;;0.93;0.93;;;;;;;36.98;31.96;99537.69;5047787;28;20281;-68
2023/08/21 08:25:36;;;;;;;0.73;0.70;;;;;;;37.11;33.63;99534.16;5048747;28;20204;-69
2023/08/21 08:28:03;;;;;;;0.55;0.55;;;;;;;37.33;32.25;99530.94;5048809;28;20204;-68
2023/08/21 08:30:31;;;;;;;0.70;0.70;;;;;;;37.50;31.69;99533.97;5048299;28;20223;-69
2023/08/21 08:32:58;;;;;;;0.80;0.80;;;;;;;37.52;34.95;99531.88;5049378;28;20201;-68
2023/08/21 08:35:24;;;;;;;0.80;0.80;;;;;;;37.63;31.38;99531.19;5047800;28;20213;-68
2023/08/21 08:37:51;;;;;;;0.73;0.73;;;;;;;37.83;30.70;99528.34;5049476;28;20208;-69
2023/08/21 08:40:18;;;;;;;1.10;1.10;;;;;;;38.05;29.34;99532.31;5049221;28;20262;-70
2023/08/21 08:42:45;;;;;;;0.70;0.70;;;;;;;37.82;30.88;99532.06;5048780;28;20196;-70
2023/08/21 08:45:14;;;;;;;0.80;0.80;;;;;;;37.77;31.59;99521.22;5049514;28;20197;-69
2023/08/21 08:47:43;;;;;;;1.10;1.00;;;;;;;37.61;29.25;99529.78;5048735;28;20201;-70
2023/08/21 08:50:10;;;;;;;0.90;0.90;;;;;;;37.71;30.27;99519.38;5047668;28;20204;-69
2023/08/21 08:52:38;;;;;;;0.80;0.80;;;;;;;37.84;29.24;99514.72;5049263;28;20790;-70
2023/08/21 08:55:06;;;;;;;0.55;0.55;;;;;;;37.90;30.61;99517.59;5049006;28;20258;-68
2023/08/21 08:57:33;;;;;;;1.00;1.00;;;;;;;37.99;29.93;99514.44;5047009;28;20322;-69
2023/08/21 09:00:00;;;;;;;0.80;0.80;;;;;;;37.79;29.31;99511.91;5047937;28;20283;-69
2023/08/21 09:02:27;;;;;;;0.70;0.70;;;;;;;37.88;30.45;99509.75;5048857;28;20230;-69
2023/08/21 09:04:55;;;;;;;0.68;0.68;;;;;;;38.05;29.12;99510.88;5048603;28;20204;-70
2023/08/21 09:07:22;;;;;;;1.00;1.00;;;;;;;38.11;29.07;99507.31;5047598;28;20201;-69
2023/08/21 09:09:52;;;;;;;0.68;0.68;;;;;;;38.23;29.32;99507.38;5050228;28;20669;-69
2023/08/21 09:12:19;;;;;;;1.08;0.90;;;;;;;38.34;28.72;99504.81;5048826;28;20649;-68
2023/08/21 09:14:46;;;;;;;0.82;0.82;;;;;;;38.51;28.36;99501.56;5050144;28;20627;-69
2023/08/21 09:17:14;;;;;;;2.05;1.00;;;;;;;38.66;30.93;99492.09;5050254;28;20204;-69
2023/08/21 09:19:40;;;;;;;0.88;0.88;;;;;;;38.66;29.23;99496.63;5046732;28;20196;-68
2023/08/21 09:22:13;;;;;;;0.93;0.93;;;;;;;38.50;29.58;99497.25;5049428;28;20220;-69
2023/08/21 09:24:41;;;;;;;0.52;0.52;;;;;;;38.54;29.28;99493.06;5049606;28;20254;-69
2023/08/21 09:27:14;;;;;;;0.82;0.82;;;;;;;38.69;28.38;99488.97;5049935;28;20205;-68
2023/08/21 09:29:42;;;;;;;3.25;0.70;;;;;;;38.61;28.98;99486.59;5049659;28;20661;-70
2023/08/21 09:32:08;;;;;;;1.00;1.00;;;;;;;38.10;29.02;99470.84;5050016;28;20227;-68
2023/08/21 09:34:36;;;;;;;0.60;0.60;;;;;;;38.13;30.67;99474.97;5050036;28;20205;-68
2023/08/21 09:37:07;;;;;;;0.60;0.60;;;;;;;38.19;28.88;99474.09;5049812;28;20236;-69
2023/08/21 09:39:36;;;;;;;0.95;0.95;;;;;;;37.91;29.14;99477.22;5045202;28;20207;-70
2023/08/21 09:42:07;;;;;;;0.60;0.60;;;;;;;37.79;28.34;99468.25;5048783;28;20260;-69
2023/08/21 09:44:38;;;;;;;0.85;0.85;;;;;;;37.88;32.79;99468.78;5048633;28;20296;-69
2023/08/21 09:47:05;;;;;;;1.10;1.02;;;;;;;37.84;30.58;99460.38;5046217;28;20274;-70
2023/08/21 09:49:34;;;;;;;0.88;0.88;;;;;;;37.17;30.22;99453.91;5047813;28;20205;-70
2023/08/21 09:52:02;;;;;;;1.10;1.00;;;;;;;37.13;29.78;99463.41;5047507;28;20216;-69
2023/08/21 09:54:31;;;;;;;0.80;0.80;;;;;;;37.31;29.22;99458.16;5044997;28;20213;-69
2023/08/21 09:57:02;;;;;;;0.90;0.90;;;;;;;37.50;30.64;99458.22;5047517;28;20291;-70
2023/08/21 09:59:30;;;;;;;0.90;0.90;;;;;;;37.29;29.31;99457.53;5045309;28;20270;-69
2023/08/21 10:01:59;;;;;;;0.70;0.70;;;;;;;37.12;29.83;99460.94;5050249;28;20250;-70
2023/08/21 10:04:28;;;;;;;0.70;0.70;;;;;;;36.86;30.33;99450.38;5051560;28;20588;-69
2023/08/21 10:06:56;;;;;;;0.73;0.73;;;;;;;36.82;30.44;99455.34;5050278;28;20204;-68
2023/08/21 10:09:25;;;;;;;1.05;0.90;;;;;;;36.56;30.68;99450.13;5051656;28;20204;-70
2023/08/21 10:11:54;;;;;;;1.00;1.00;;;;;;;36.49;31.28;99454.63;5052592;28;20303;-69
2023/08/21 10:14:24;;;;;;;0.80;0.75;;;;;;;36.55;30.13;99440.44;5052952;28;20211;-69
2023/08/21 10:16:53;;;;;;;0.65;0.65;;;;;;;36.56;30.99;99439.44;5052781;28;20207;-70
2023/08/21 10:19:21;;;;;;;0.80;0.80;;;;;;;36.57;30.91;99435.75;5052944;28;20209;-69
2023/08/21 10:21:49;;;;;;;0.82;0.75;;;;;;;36.57;29.91;99435.75;5052289;28;20262;-69
2023/08/21 10:24:28;;;;;;;0.85;0.85;;;;;;;36.40;29.51;99415.84;5052618;28;20215;-70
2023/08/21 10:26:55;;;;;;;0.80;0.80;;;;;;;36.71;29.75;99437.28;5052534;28;20271;-69
2023/08/21 10:29:24;;;;;;;0.60;0.60;;;;;;;36.77;29.83;99431.13;5052516;28;20212;-69
2023/08/21 10:31:59;;;;;;;0.70;0.70;;;;;;;36.61;29.85;99434.28;5052340;28;20228;-71
2023/08/21 10:34:33;;;;;;;0.70;0.70;;;;;;;36.70;29.98;99427.66;5052318;28;20208;-69
2023/08/21 10:37:13;;;;;;;0.80;0.80;;;;;;;36.85;29.02;99420.16;5051742;28;20582;-70
2023/08/21 10:39:53;;;;;;;0.73;0.73;;;;;;;36.80;29.23;99417.34;5049115;28;20207;-72
2023/08/21 10:42:20;;;;;;;0.90;0.90;;;;;;;36.87;29.94;99422.63;5052011;28;20200;-69
2023/08/21 10:44:55;;;;;;;1.08;1.08;;;;;;;37.14;28.68;99416.91;5052164;28;20680;-70
2023/08/21 10:47:23;;;;;;;0.80;0.80;;;;;;;37.32;27.77;99418.84;5052428;28;20205;-71
2023/08/21 10:49:52;;;;;;;2.78;0.68;;;;;;;37.59;28.09;99414.09;5052162;28;20566;-69
2023/08/21 10:52:23;;;;;;;0.75;0.70;;;;;;;37.72;26.97;99409.44;5051934;28;20216;-70
2023/08/21 10:54:52;;;;;;;0.60;0.60;;;;;;;37.52;27.22;99416.00;5052130;28;20204;-71
2023/08/21 10:57:19;;;;;;;0.70;0.70;;;;;;;37.47;27.06;99419.38;5051922;28;20669;-71
2023/08/21 10:59:55;;;;;;;1.13;1.02;;;;;;;37.11;26.52;99417.34;5050278;28;20204;-67
2023/08/21 11:02:22;;;;;;;0.93;0.60;;;;;;;37.24;26.45;99414.59;5048883;28;20208;-67
2023/08/21 11:04:49;;;;;;;0.70;0.70;;;;;;;37.40;27.42;99409.72;5050012;28;20196;-67
2023/08/21 11:07:16;;;;;;;2.45;0.60;;;;;;;37.56;26.85;99409.19;5049469;28;20929;-69
2023/08/21 11:09:43;;;;;;;0.90;0.90;;;;;;;37.63;26.58;99405.44;5049859;28;20557;-67
2023/08/21 11:12:12;;;;;;;0.70;0.70;;;;;;;37.63;25.76;99412.63;5047980;28;20285;-69
2023/08/21 11:14:40;;;;;;;0.73;0.73;;;;;;;37.51;26.07;99411.72;5048223;28;20251;-68
2023/08/21 11:17:09;;;;;;;0.88;0.88;;;;;;;37.22;26.42;99397.13;5050702;28;20201;-70
2023/08/21 11:19:36;;;;;;;0.90;0.80;;;;;;;37.08;26.76;99385.72;5050261;28;20196;-70
2023/08/21 11:22:05;;;;;;;0.70;0.70;;;;;;;37.22;27.37;99410.50;5050233;28;20220;-68
2023/08/21 11:24:40;;;;;;;1.85;0.60;;;;;;;37.24;27.41;99403.88;5048432;28;20661;-70
2023/08/21 11:27:09;;;;;;;0.85;0.70;;;;;;;37.25;27.23;99397.50;5049415;28;20204;-71
2023/08/21 11:29:38;;;;;;;0.68;0.60;;;;;;;37.38;27.28;99395.75;5050505;28;20201;-69
2023/08/21 11:32:11;;;;;;;0.80;0.80;;;;;;;37.63;26.80;99399.25;5048049;28;20278;-70
2023/08/21 11:34:38;;;;;;;0.85;0.82;;;;;;;37.44;26.77;99400.22;5048818;28;20197;-69
2023/08/21 11:37:06;;;;;;;1.40;0.85;;;;;;;37.20;27.76;99377.78;5048563;28;20652;-69